Time;durP1;ratioP1;P1;durP2;ratioP2;P2;SDS_P1;SDS_P2;PMS_P1;PMS_P2;Temp;Humidity;BMP_temperature;BMP_pressure;BME280_temperature;BME280_humidity;BME280_pressure;Samples;Min_cycle;Max_cycle;Signal;HPM_P1;HPM_P2
2023/08/02 00:00:21;;;;;;;6.43;3.25;;;;;;;15.62;81.64;97214.59;5065900;28;20072;-79
2023/08/02 00:03:43;;;;;;;9.10;3.80;;;;;;;16.25;81.21;97303.50;5063414;28;20124;-80
2023/08/02 00:20:54;;;;;;;5.25;3.60;;;;;;;16.19;81.44;97277.56;5011374;28;20094;-78
2023/08/02 00:23:25;;;;;;;5.55;3.40;;;;;;;16.14;81.60;97259.47;5006695;28;20376;-78
2023/08/02 00:25:55;;;;;;;4.70;3.38;;;;;;;16.00;81.45;97220.63;5039960;28;20116;-77
2023/08/02 00:29:20;;;;;;;7.22;3.60;;;;;;;16.33;81.46;97278.38;5036929;28;20065;-79
2023/08/02 00:32:06;;;;;;;6.32;4.15;;;;;;;16.28;81.80;97271.13;5032739;28;20052;-78
2023/08/02 00:34:36;;;;;;;9.57;4.00;;;;;;;16.09;81.27;97228.88;5006099;28;20055;-77
2023/08/02 00:37:24;;;;;;;8.70;3.80;;;;;;;16.13;81.00;97225.25;5040484;28;20049;-78
2023/08/02 00:39:56;;;;;;;7.53;4.05;;;;;;;16.37;81.16;97269.28;5013555;28;20033;-79
2023/08/02 00:42:43;;;;;;;6.38;4.15;;;;;;;16.35;81.26;97266.09;5005157;28;20049;-80
2023/08/02 00:45:16;;;;;;;7.53;4.22;;;;;;;16.08;81.22;97225.34;5011361;28;20048;-80
2023/08/02 00:47:52;;;;;;;6.03;3.67;;;;;;;16.41;81.20;97267.56;5043020;28;20053;-79
2023/08/02 00:50:45;;;;;;;5.70;3.92;;;;;;;16.53;81.05;97281.47;5045880;28;20073;-80
2023/08/02 00:53:33;;;;;;;7.43;3.72;;;;;;;16.16;80.99;97230.06;5045975;28;20487;-80
2023/08/02 00:57:23;;;;;;;6.78;4.25;;;;;;;16.50;80.26;97278.53;5006443;28;20076;-80
2023/08/02 01:00:33;;;;;;;8.52;4.10;;;;;;;15.92;80.84;97207.75;5027686;28;20052;-79
2023/08/02 01:03:50;;;;;;;7.22;3.90;;;;;;;16.06;80.94;97241.13;4977288;28;20053;-80
2023/08/02 01:06:34;;;;;;;8.82;4.25;;;;;;;16.02;81.17;97244.75;4971983;28;20107;-79
2023/08/02 01:09:14;;;;;;;8.48;4.22;;;;;;;15.59;81.73;97179.13;5010659;28;20044;-79
2023/08/02 01:11:50;;;;;;;5.97;3.70;;;;;;;15.91;81.42;97222.44;5037789;28;20041;-80
2023/08/02 01:14:20;;;;;;;5.80;4.63;;;;;;;16.09;81.33;97262.28;5027414;28;20124;-80
2023/08/02 01:16:49;;;;;;;9.02;4.15;;;;;;;15.78;81.50;97206.94;5039651;28;20037;-78
2023/08/02 01:19:39;;;;;;;7.22;4.25;;;;;;;16.10;81.71;97258.47;5017085;28;20021;-80
2023/08/02 01:22:10;;;;;;;9.52;4.25;;;;;;;16.04;81.95;97254.22;5016164;28;20049;-80
2023/08/02 01:24:40;;;;;;;7.65;4.32;;;;;;;16.03;82.07;97252.63;5022174;28;20619;-80
2023/08/02 01:27:20;;;;;;;6.85;4.28;;;;;;;15.90;81.64;97237.13;5057626;28;20069;-80
2023/08/02 01:29:47;;;;;;;7.45;4.38;;;;;;;15.92;81.83;97240.34;5070434;28;20033;-81
2023/08/02 01:32:18;;;;;;;8.18;4.68;;;;;;;15.84;82.00;97224.75;5038246;28;20133;-81
2023/08/02 01:34:44;;;;;;;7.65;4.32;;;;;;;15.93;82.02;97244.66;5004624;28;20033;-79
2023/08/02 01:37:12;;;;;;;10.88;4.32;;;;;;;15.89;82.19;97230.09;5031942;28;20036;-79
2023/08/02 01:39:38;;;;;;;8.02;4.25;;;;;;;15.97;81.84;97225.84;5042821;28;20052;-79
2023/08/02 01:42:05;;;;;;;8.32;4.68;;;;;;;15.70;81.66;97183.22;5028362;28;20124;-79
2023/08/02 01:44:39;;;;;;;7.40;4.38;;;;;;;15.74;81.70;97184.22;5019988;28;20036;-79
2023/08/02 01:47:21;;;;;;;6.07;4.38;;;;;;;16.03;81.75;97232.81;5041166;28;20057;-81
2023/08/02 01:49:50;;;;;;;7.30;4.45;;;;;;;15.74;81.89;97192.38;5010905;28;20037;-80
2023/08/02 01:52:16;;;;;;;9.65;4.28;;;;;;;16.17;81.81;97249.91;5030272;28;20029;-79
2023/08/02 01:54:42;;;;;;;7.70;4.28;;;;;;;15.76;82.07;97187.44;5036039;28;20109;-79
2023/08/02 01:57:08;;;;;;;6.53;4.32;;;;;;;16.02;82.02;97234.72;5017357;28;20025;-79
2023/08/02 01:59:35;;;;;;;7.68;4.20;;;;;;;15.82;82.01;97184.31;5014214;28;20097;-79
2023/08/02 02:02:01;;;;;;;7.22;4.30;;;;;;;15.77;82.29;97186.34;5041143;28;20051;-79
2023/08/02 02:04:27;;;;;;;5.43;4.38;;;;;;;15.66;82.21;97172.16;5016865;28;20472;-79
2023/08/02 02:06:53;;;;;;;9.18;4.60;;;;;;;16.17;82.02;97248.00;5015184;28;20024;-79
2023/08/02 02:09:18;;;;;;;8.68;4.40;;;;;;;16.09;81.92;97229.69;5022963;28;20390;-79
2023/08/02 02:11:44;;;;;;;7.45;4.18;;;;;;;16.12;81.91;97229.09;5055289;28;20028;-78
2023/08/02 02:14:10;;;;;;;10.13;4.30;;;;;;;16.04;81.93;97220.81;5013521;28;20639;-79
2023/08/02 02:16:37;;;;;;;7.93;4.15;;;;;;;16.05;81.87;97206.94;5059437;28;20030;-79
2023/08/02 02:19:03;;;;;;;7.32;4.25;;;;;;;15.86;81.75;97170.97;5040154;28;20095;-79
2023/08/02 02:21:33;;;;;;;7.45;4.47;;;;;;;15.94;81.45;97167.50;5032228;28;20026;-78
2023/08/02 02:24:04;;;;;;;8.20;4.25;;;;;;;15.84;81.38;97146.03;5025451;28;20414;-78
2023/08/02 02:26:36;;;;;;;7.73;4.00;;;;;;;15.85;81.24;97153.03;5040250;28;20523;-78
2023/08/02 02:29:16;;;;;;;8.40;4.03;;;;;;;16.03;81.25;97170.34;5004453;28;20038;-80
2023/08/02 02:31:46;;;;;;;9.23;4.15;;;;;;;16.15;81.21;97185.00;5029845;28;20045;-78
2023/08/02 02:34:12;;;;;;;5.63;3.90;;;;;;;16.28;80.99;97200.47;5010619;28;20037;-78
2023/08/02 02:36:39;;;;;;;6.90;4.00;;;;;;;15.79;80.90;97132.56;5027013;28;20042;-79
2023/08/02 02:39:22;;;;;;;4.93;3.80;;;;;;;16.15;80.83;97186.94;5044009;28;20024;-79
2023/08/02 02:42:58;;;;;;;9.10;4.28;;;;;;;15.71;81.07;97149.53;5049960;28;20059;-78
2023/08/02 02:45:55;;;;;;;8.50;3.92;;;;;;;16.13;80.75;97200.78;5066080;28;20094;-79
2023/08/02 02:48:28;;;;;;;5.18;4.00;;;;;;;16.12;80.62;97196.47;5019455;28;20052;-79
2023/08/02 02:50:53;;;;;;;7.05;3.65;;;;;;;15.82;80.43;97137.38;5020584;28;20033;-79
2023/08/02 02:53:34;;;;;;;7.43;3.83;;;;;;;16.13;80.55;97197.25;5047740;28;20028;-79
2023/08/02 02:56:08;;;;;;;9.15;4.30;;;;;;;15.74;80.21;97127.22;5031113;28;20037;-79
2023/08/02 02:58:35;;;;;;;7.75;3.95;;;;;;;16.17;80.63;97193.66;5053163;28;20532;-79
2023/08/02 03:01:00;;;;;;;6.95;4.40;;;;;;;16.28;80.39;97205.91;5015497;28;20025;-79
2023/08/02 03:03:28;;;;;;;5.95;3.58;;;;;;;15.89;80.16;97132.34;5039536;28;20512;-78
2023/08/02 03:05:55;;;;;;;6.05;3.60;;;;;;;16.18;80.22;97184.38;5001986;28;20024;-78
2023/08/02 03:08:24;;;;;;;8.45;4.00;;;;;;;16.17;80.26;97171.94;5048397;28;20125;-77
2023/08/02 03:11:00;;;;;;;6.85;4.32;;;;;;;15.84;80.18;97114.25;5045505;28;20140;-78
2023/08/02 03:13:26;;;;;;;8.55;4.03;;;;;;;16.16;80.54;97170.31;5008047;28;20041;-79
2023/08/02 03:15:51;;;;;;;8.43;4.03;;;;;;;16.12;80.29;97158.44;5061147;28;20092;-78
2023/08/02 03:18:16;;;;;;;6.10;4.20;;;;;;;16.10;80.39;97166.09;5028634;28;20025;-78
2023/08/02 03:20:42;;;;;;;8.57;4.47;;;;;;;16.04;80.38;97145.56;5051986;28;20096;-78
2023/08/02 03:23:08;;;;;;;7.22;4.20;;;;;;;16.16;80.07;97154.00;5056767;28;20499;-78
2023/08/02 03:25:34;;;;;;;6.78;3.92;;;;;;;16.24;80.25;97158.69;5056636;28;20586;-78
2023/08/02 03:28:00;;;;;;;6.00;3.47;;;;;;;16.08;80.23;97146.56;5043818;28;20033;-78
2023/08/02 03:30:25;;;;;;;10.38;4.93;;;;;;;16.09;80.53;97153.63;5059188;28;20052;-77
2023/08/02 03:32:50;;;;;;;9.55;4.00;;;;;;;16.02;80.37;97147.81;5039106;28;20057;-78
2023/08/02 03:35:16;;;;;;;9.13;4.25;;;;;;;16.02;80.27;97145.09;5056042;28;20060;-78
2023/08/02 03:37:41;;;;;;;7.88;4.00;;;;;;;16.02;80.12;97147.00;5060737;28;20092;-78
2023/08/02 03:40:07;;;;;;;7.78;4.03;;;;;;;15.99;80.20;97136.72;5017829;28;20056;-78
2023/08/02 03:42:32;;;;;;;7.72;4.10;;;;;;;15.96;80.61;97137.34;5037004;28;20040;-79
2023/08/02 03:44:58;;;;;;;7.03;4.18;;;;;;;15.93;80.29;97144.19;5037935;28;20541;-80
2023/08/02 03:47:23;;;;;;;7.82;4.60;;;;;;;15.92;81.02;97130.94;5034613;28;20036;-80
2023/08/02 03:49:49;;;;;;;6.93;4.55;;;;;;;15.74;80.76;97113.66;5011598;28;20040;-79
2023/08/02 03:52:14;;;;;;;8.70;4.55;;;;;;;15.97;80.62;97134.31;5040937;28;20545;-80
2023/08/02 03:54:40;;;;;;;8.10;4.07;;;;;;;15.88;81.33;97141.59;5053829;28;20131;-81
2023/08/02 03:57:06;;;;;;;6.70;4.43;;;;;;;15.83;81.70;97141.69;5041923;28;20111;-81
2023/08/02 03:59:31;;;;;;;7.68;4.22;;;;;;;15.73;81.74;97131.03;5024957;28;20069;-80
2023/08/02 04:01:56;;;;;;;8.00;4.70;;;;;;;15.30;81.61;97064.59;5043819;28;20057;-82
2023/08/02 04:04:22;;;;;;;8.68;4.70;;;;;;;15.69;81.69;97130.03;5017457;28;20502;-82
2023/08/02 04:06:47;;;;;;;6.63;4.40;;;;;;;15.64;81.79;97124.72;5020409;28;20108;-82
2023/08/02 04:09:12;;;;;;;5.57;4.30;;;;;;;15.68;81.79;97128.44;5008101;28;20075;-80
2023/08/02 04:11:38;;;;;;;8.27;4.40;;;;;;;15.66;82.13;97123.31;5042888;28;20029;-78
2023/08/02 04:14:03;;;;;;;9.68;4.82;;;;;;;15.78;82.13;97130.94;5032987;28;20037;-78
2023/08/02 04:16:29;;;;;;;8.40;4.70;;;;;;;15.81;81.50;97135.75;5052881;28;20032;-81
2023/08/02 04:18:54;;;;;;;7.25;4.10;;;;;;;15.79;81.60;97116.25;5009431;28;20577;-78
2023/08/02 04:21:19;;;;;;;8.43;4.40;;;;;;;15.83;81.17;97125.41;5045987;28;21518;-79
2023/08/02 04:23:47;;;;;;;7.65;4.32;;;;;;;15.78;81.05;97122.78;5008351;28;20038;-79
2023/08/02 04:26:13;;;;;;;6.93;4.22;;;;;;;15.91;80.58;97130.13;5044185;28;20024;-81
2023/08/02 04:28:38;;;;;;;7.95;4.15;;;;;;;15.73;80.59;97090.31;5026895;28;20171;-78
2023/08/02 04:31:04;;;;;;;8.25;4.22;;;;;;;15.77;80.61;97080.47;5039227;28;20049;-78
2023/08/02 04:33:29;;;;;;;6.18;4.15;;;;;;;15.55;80.31;97045.91;5060659;28;20132;-78
2023/08/02 04:35:58;;;;;;;7.82;4.35;;;;;;;15.98;79.92;97097.13;5034647;28;20029;-78
2023/08/02 04:38:23;;;;;;;9.57;4.13;;;;;;;15.98;79.88;97076.19;5059920;28;20034;-78
2023/08/02 04:40:48;;;;;;;8.95;3.67;;;;;;;15.96;80.11;97083.84;5029975;28;20033;-78
2023/08/02 04:43:14;;;;;;;5.75;3.65;;;;;;;15.81;79.92;97065.16;5025920;28;20043;-79
2023/08/02 04:45:39;;;;;;;7.80;4.00;;;;;;;15.99;79.33;97085.94;5055627;28;20036;-77
2023/08/02 04:48:05;;;;;;;7.63;4.18;;;;;;;16.02;79.58;97088.06;5044541;28;20033;-78
2023/08/02 04:50:33;;;;;;;7.15;4.55;;;;;;;16.16;79.49;97099.69;5029782;28;20486;-79
2023/08/02 04:52:58;;;;;;;5.93;3.60;;;;;;;16.15;79.30;97095.34;5050328;28;20504;-76
2023/08/02 04:55:24;;;;;;;6.57;3.80;;;;;;;16.06;79.14;97061.88;5036471;28;20035;-80
2023/08/02 04:57:49;;;;;;;6.65;3.70;;;;;;;16.12;78.59;97070.72;5059644;28;20042;-80
2023/08/02 05:00:15;;;;;;;7.28;4.10;;;;;;;16.06;78.49;97061.88;5030947;28;20446;-80
2023/08/02 05:02:40;;;;;;;8.15;3.85;;;;;;;15.94;78.58;97031.72;5042550;28;20041;-81
2023/08/02 05:05:06;;;;;;;4.68;3.58;;;;;;;15.97;78.40;97031.13;5039775;28;20056;-78
2023/08/02 05:07:37;;;;;;;6.50;3.33;;;;;;;16.37;77.75;97079.06;5028451;28;20033;-77
2023/08/02 05:10:05;;;;;;;6.20;3.58;;;;;;;16.35;77.64;97075.88;5046339;28;20082;-78
2023/08/02 05:12:34;;;;;;;4.60;3.22;;;;;;;16.42;77.45;97091.72;5027387;28;20017;-78
2023/08/02 05:14:59;;;;;;;8.90;3.50;;;;;;;16.08;77.46;97037.91;5035934;28;20277;-77
2023/08/02 05:17:27;;;;;;;4.55;3.20;;;;;;;16.34;76.96;97052.50;5060600;28;20534;-81
2023/08/02 05:19:53;;;;;;;8.02;3.55;;;;;;;16.49;77.05;97073.09;5046133;28;20052;-79
2023/08/02 05:22:18;;;;;;;3.83;2.88;;;;;;;16.37;76.72;97057.34;5024664;28;20049;-78
2023/08/02 05:24:44;;;;;;;5.68;3.10;;;;;;;16.48;76.40;97058.69;5032512;28;20040;-76
2023/08/02 05:27:09;;;;;;;6.35;3.10;;;;;;;16.54;76.42;97049.34;5027976;28;20025;-78
2023/08/02 05:29:34;;;;;;;5.57;3.35;;;;;;;16.81;76.24;97077.47;5014455;28;20049;-80
2023/08/02 05:32:00;;;;;;;7.13;3.33;;;;;;;16.71;75.77;97045.09;5006467;28;20082;-77
2023/08/02 05:34:25;;;;;;;6.47;3.25;;;;;;;16.80;75.87;97048.69;5052743;28;20038;-78
2023/08/02 05:36:50;;;;;;;7.25;3.85;;;;;;;16.83;75.23;97046.13;5041573;28;20171;-78
2023/08/02 05:39:16;;;;;;;5.22;2.95;;;;;;;16.84;74.79;97030.63;5016923;28;20033;-78
2023/08/02 05:41:41;;;;;;;6.80;3.33;;;;;;;16.96;74.60;97052.59;5015802;28;20055;-79
2023/08/02 05:44:07;;;;;;;5.15;3.08;;;;;;;17.00;74.34;97048.13;5016002;28;20120;-78
2023/08/02 05:46:32;;;;;;;6.20;3.10;;;;;;;17.00;74.37;97043.50;5050283;28;20026;-78
2023/08/02 05:48:57;;;;;;;5.93;3.55;;;;;;;17.01;74.16;97047.03;5031533;28;20515;-78
2023/08/02 05:51:23;;;;;;;4.82;2.92;;;;;;;16.97;74.09;97043.31;5046673;28;20039;-78
2023/08/02 05:53:48;;;;;;;5.22;3.00;;;;;;;17.05;74.36;97067.03;5057899;28;20037;-78
2023/08/02 05:56:14;;;;;;;5.90;3.30;;;;;;;17.00;73.60;97054.38;5037855;28;20089;-81
2023/08/02 05:58:39;;;;;;;6.65;3.25;;;;;;;16.77;73.60;97013.94;5017949;28;20102;-79
2023/08/02 06:01:05;;;;;;;5.45;2.90;;;;;;;16.90;73.54;97015.75;5045719;28;20108;-78
2023/08/02 06:03:30;;;;;;;6.00;3.22;;;;;;;17.11;74.19;97061.13;5008564;28;20041;-78
2023/08/02 06:05:55;;;;;;;5.00;2.85;;;;;;;17.17;73.11;97059.91;5065474;28;20034;-79
2023/08/02 06:08:21;;;;;;;7.65;2.97;;;;;;;17.11;73.13;97044.00;5033660;28;20044;-79
2023/08/02 06:10:46;;;;;;;3.90;2.60;;;;;;;16.55;73.01;96955.78;5020367;28;20121;-80
2023/08/02 06:13:12;;;;;;;7.18;3.20;;;;;;;16.95;73.02;97007.47;5055067;28;20236;-79
2023/08/02 06:15:37;;;;;;;6.20;3.53;;;;;;;17.10;73.28;97026.91;5066704;28;20029;-79
2023/08/02 06:18:02;;;;;;;4.00;2.80;;;;;;;16.98;72.89;97001.41;5050315;28;20123;-78
2023/08/02 06:20:28;;;;;;;4.45;2.90;;;;;;;17.21;73.32;97030.13;5045762;28;20028;-79
2023/08/02 06:22:53;;;;;;;5.05;3.20;;;;;;;17.09;73.13;96997.25;5007224;28;20030;-78
2023/08/02 06:25:19;;;;;;;4.05;2.90;;;;;;;17.28;73.04;97020.38;5048762;28;20040;-78
2023/08/02 06:27:44;;;;;;;6.72;3.03;;;;;;;17.27;73.35;97031.56;5032374;28;20036;-78
2023/08/02 06:30:10;;;;;;;6.25;3.00;;;;;;;17.18;73.38;97012.50;5026755;28;20417;-78
2023/08/02 06:32:35;;;;;;;9.15;3.30;;;;;;;17.18;73.20;97007.06;5025506;28;20029;-78
2023/08/02 06:35:01;;;;;;;4.15;2.70;;;;;;;17.32;73.27;97008.88;5065419;28;20364;-79
2023/08/02 06:37:26;;;;;;;4.38;2.70;;;;;;;17.34;73.03;97010.13;5019626;28;20117;-79
2023/08/02 06:39:51;;;;;;;5.20;3.05;;;;;;;17.29;73.01;97007.59;5035966;28;20479;-79
2023/08/02 06:42:17;;;;;;;5.13;3.10;;;;;;;17.34;73.10;96996.53;5032591;28;20036;-79
2023/08/02 06:44:42;;;;;;;5.40;3.38;;;;;;;17.55;72.94;97022.06;5018778;28;20021;-79
2023/08/02 06:47:07;;;;;;;4.50;2.78;;;;;;;17.38;72.89;96994.00;5032615;28;20131;-78
2023/08/02 06:49:34;;;;;;;5.15;3.10;;;;;;;17.45;72.52;97006.03;5025720;28;20790;-79
2023/08/02 06:52:01;;;;;;;3.90;2.60;;;;;;;17.56;72.75;97012.00;5058579;28;20248;-78
2023/08/02 06:54:26;;;;;;;5.75;2.55;;;;;;;17.41;73.36;96999.59;5028670;28;20064;-78
2023/08/02 06:56:52;;;;;;;4.68;2.95;;;;;;;17.38;73.12;96988.56;5058849;28;20070;-78
2023/08/02 06:59:17;;;;;;;5.28;2.80;;;;;;;17.41;73.22;96994.16;5027221;28;20116;-78
2023/08/02 07:01:42;;;;;;;4.70;2.70;;;;;;;17.43;72.93;96986.50;5060434;28;20033;-78
2023/08/02 07:04:08;;;;;;;5.18;2.75;;;;;;;17.26;73.18;96953.78;5026894;28;20028;-76
2023/08/02 07:06:33;;;;;;;3.22;2.65;;;;;;;17.46;73.43;96988.56;5011874;28;20042;-78
2023/08/02 07:08:59;;;;;;;3.92;2.65;;;;;;;17.51;73.01;96974.81;5020504;28;20021;-78
2023/08/02 07:11:24;;;;;;;3.65;2.70;;;;;;;17.59;73.22;96987.66;5052278;28;20507;-78
2023/08/02 07:13:49;;;;;;;4.55;2.90;;;;;;;17.43;73.31;96953.81;5041337;28;20028;-79
2023/08/02 07:16:15;;;;;;;5.07;2.97;;;;;;;17.43;73.42;96947.56;5064617;28;20084;-78
2023/08/02 07:18:40;;;;;;;4.80;2.80;;;;;;;17.37;73.17;96927.88;5041667;28;20021;-78
2023/08/02 07:21:10;;;;;;;7.40;2.60;;;;;;;17.60;73.40;96953.03;5058622;28;20577;-78
2023/08/02 07:23:35;;;;;;;4.35;2.60;;;;;;;17.54;73.10;96938.00;5012052;28;20021;-78
2023/08/02 07:26:02;;;;;;;5.32;2.95;;;;;;;17.66;72.94;96952.59;5072146;28;20029;-78
2023/08/02 07:28:27;;;;;;;5.10;2.30;;;;;;;17.56;73.12;96939.28;5030630;28;20029;-77
2023/08/02 07:30:52;;;;;;;4.93;2.70;;;;;;;17.44;72.91;96922.75;5038012;28;20546;-79
2023/08/02 07:33:18;;;;;;;5.80;3.08;;;;;;;17.64;72.96;96935.75;5057910;28;20036;-78
2023/08/02 07:35:46;;;;;;;4.63;3.00;;;;;;;17.71;73.22;96938.00;5056563;28;20069;-78
2023/08/02 07:38:12;;;;;;;4.97;2.90;;;;;;;17.49;72.92;96892.66;5065812;28;20032;-78
2023/08/02 07:40:38;;;;;;;5.93;2.90;;;;;;;17.79;72.39;96929.84;5016252;28;20033;-79
2023/08/02 07:43:04;;;;;;;4.57;2.83;;;;;;;17.71;72.54;96903.38;5048783;28;20086;-78
2023/08/02 07:45:29;;;;;;;5.03;2.92;;;;;;;17.65;72.66;96907.41;5035723;28;20399;-77
2023/08/02 07:47:54;;;;;;;4.72;2.80;;;;;;;17.72;72.27;96910.44;5064622;28;20018;-78
2023/08/02 07:56:21;;;;;;;4.63;2.88;;;;;;;17.49;72.11;96876.31;4996297;28;20044;-79
2023/08/02 07:58:49;;;;;;;3.72;2.35;;;;;;;17.44;71.89;96851.97;4969705;28;20125;-78
2023/08/02 08:01:15;;;;;;;5.03;2.80;;;;;;;17.28;72.35;96821.72;4985068;28;20493;-77
2023/08/02 08:03:40;;;;;;;7.70;2.78;;;;;;;17.45;72.93;96860.94;4987929;28;20080;-78
2023/08/02 08:06:13;;;;;;;4.85;2.70;;;;;;;17.92;72.69;96922.63;4987484;28;20030;-79
2023/08/02 08:08:40;;;;;;;3.92;2.63;;;;;;;17.83;73.16;96892.66;4984408;28;20088;-79
2023/08/02 08:11:05;;;;;;;5.07;2.90;;;;;;;17.79;72.89;96886.25;4987348;28;20072;-78
2023/08/02 08:13:30;;;;;;;4.35;3.10;;;;;;;17.83;73.13;96881.75;4990688;28;20042;-79
2023/08/02 08:15:56;;;;;;;5.20;2.90;;;;;;;17.65;73.56;96861.13;4978876;28;20026;-75
2023/08/02 08:18:21;;;;;;;6.43;2.85;;;;;;;17.79;73.56;96864.47;4979735;28;20069;-78
2023/08/02 08:20:46;;;;;;;7.13;2.83;;;;;;;17.83;73.72;96870.88;4970739;28;20025;-78
2023/08/02 08:23:12;;;;;;;6.68;3.00;;;;;;;18.03;73.88;96901.28;4964785;28;20144;-79
2023/08/02 08:25:37;;;;;;;3.90;2.80;;;;;;;17.95;74.10;96870.19;4993855;28;20026;-79
2023/08/02 08:28:03;;;;;;;8.25;3.72;;;;;;;18.01;73.67;96868.13;4990904;28;20034;-78
2023/08/02 08:30:28;;;;;;;8.18;3.30;;;;;;;18.04;74.19;96864.75;4984877;28;20539;-79
2023/08/02 08:32:54;;;;;;;4.57;3.17;;;;;;;18.14;74.63;96864.38;4976887;28;20057;-78
2023/08/02 08:35:19;;;;;;;5.00;3.40;;;;;;;17.97;75.04;96823.56;4986470;28;20053;-78
2023/08/02 08:37:48;;;;;;;6.57;3.30;;;;;;;17.97;75.57;96854.31;4983371;28;20039;-80
2023/08/02 08:40:17;;;;;;;4.93;3.58;;;;;;;17.94;76.05;96828.56;4988084;28;20038;-80
2023/08/02 08:42:53;;;;;;;5.63;3.53;;;;;;;17.91;75.92;96834.66;5006262;28;20125;-80
2023/08/02 08:45:19;;;;;;;;;;;;;;;17.90;76.46;96868.44;4989968;28;20562;-80
2023/08/02 08:47:45;;;;;;;5.80;3.83;;;;;;;18.09;76.12;96862.63;4971573;28;19917;-80
2023/08/02 08:50:30;;;;;;;8.13;3.38;;;;;;;18.17;76.07;96871.91;4997960;28;20046;-83
2023/08/02 08:52:56;;;;;;;7.00;3.90;;;;;;;18.13;76.69;96851.91;4969244;28;20037;-80
2023/08/02 08:55:23;;;;;;;7.40;3.95;;;;;;;18.02;77.26;96845.97;4965644;28;20030;-80
2023/08/02 08:57:50;;;;;;;7.15;4.22;;;;;;;17.80;77.54;96811.59;4994540;28;20038;-79
2023/08/02 09:00:15;;;;;;;7.53;4.20;;;;;;;17.85;77.59;96807.91;4991660;28;20021;-78
2023/08/02 09:02:43;;;;;;;6.55;3.88;;;;;;;18.18;77.88;96857.19;4995189;28;20045;-78
2023/08/02 09:05:08;;;;;;;13.10;8.95;;;;;;;18.24;78.23;96864.03;4971005;28;20027;-79
2023/08/02 09:07:34;;;;;;;9.13;4.85;;;;;;;18.00;78.68;96839.25;4969302;28;20097;-78
2023/08/02 09:09:59;;;;;;;9.50;4.97;;;;;;;18.14;79.55;96864.38;4983085;28;20093;-79
2023/08/02 09:12:25;;;;;;;10.40;5.13;;;;;;;18.13;79.10;96846.44;4994737;28;20073;-77
2023/08/02 09:15:01;;;;;;;7.40;4.85;;;;;;;18.10;80.34;96847.09;4973527;28;20023;-79
2023/08/02 09:17:27;;;;;;;8.68;5.70;;;;;;;18.08;81.00;96849.34;5010250;28;20041;-79
2023/08/02 09:20:07;;;;;;;9.18;5.60;;;;;;;17.94;80.89;96823.13;4998695;28;20128;-79
2023/08/02 09:22:32;;;;;;;9.10;5.40;;;;;;;18.07;81.58;96853.19;4977907;28;20042;-79
2023/08/02 09:24:58;;;;;;;8.43;5.97;;;;;;;18.05;81.65;96853.50;4989396;28;20034;-77
2023/08/02 09:27:29;;;;;;;8.50;6.05;;;;;;;18.08;81.92;96860.25;4962053;28;20029;-79
2023/08/02 09:29:55;;;;;;;11.40;6.28;;;;;;;18.14;81.82;96843.38;4967148;28;20038;-79
2023/08/02 09:32:22;;;;;;;8.00;6.22;;;;;;;17.80;82.86;96821.69;4967502;28;20030;-79
2023/08/02 09:34:53;;;;;;;9.90;6.70;;;;;;;18.05;82.66;96841.81;4982937;28;20033;-79
2023/08/02 09:37:31;;;;;;;8.55;6.30;;;;;;;18.03;82.63;96841.34;4985021;28;20045;-79
2023/08/02 09:39:56;;;;;;;8.75;6.55;;;;;;;18.08;82.99;96841.16;4995117;28;20065;-79
2023/08/02 09:42:24;;;;;;;9.80;6.68;;;;;;;18.10;82.76;96833.47;4977515;28;20030;-79
2023/08/02 09:44:52;;;;;;;9.90;7.07;;;;;;;18.08;82.57;96824.81;4977112;28;20212;-79
2023/08/02 09:47:18;;;;;;;7.82;5.97;;;;;;;17.98;82.73;96792.47;4979404;28;20097;-79
2023/08/02 09:49:43;;;;;;;9.90;6.45;;;;;;;18.05;82.90;96784.59;5004438;28;20122;-76
2023/08/02 09:52:09;;;;;;;9.05;7.03;;;;;;;18.32;82.29;96805.97;4976765;28;20142;-79
2023/08/02 09:54:34;;;;;;;10.25;7.05;;;;;;;18.02;82.73;96777.09;4970308;28;20053;-79
2023/08/02 09:57:01;;;;;;;9.27;7.13;;;;;;;18.32;82.57;96805.97;4965929;28;20031;-79
2023/08/02 09:59:29;;;;;;;10.23;6.85;;;;;;;18.48;82.59;96807.06;4988233;28;20117;-80
2023/08/02 10:01:56;;;;;;;10.30;7.38;;;;;;;18.49;82.81;96795.81;4990251;28;20030;-79
2023/08/02 10:04:24;;;;;;;10.27;7.35;;;;;;;18.32;82.42;96776.00;4969852;28;20038;-79
2023/08/02 10:06:52;;;;;;;10.38;7.35;;;;;;;18.51;82.79;96798.19;5000259;28;20045;-79
2023/08/02 10:09:25;;;;;;;8.70;7.32;;;;;;;17.80;82.78;96683.59;4986951;28;20038;-79
2023/08/02 10:12:08;;;;;;;9.02;7.28;;;;;;;18.61;83.17;96786.91;4973781;28;20034;-79
2023/08/02 10:14:34;;;;;;;11.30;7.65;;;;;;;18.57;83.47;96777.81;4989287;28;20034;-77
2023/08/02 10:17:01;;;;;;;17.45;7.95;;;;;;;18.55;83.30;96756.31;4960773;28;20440;-78
2023/08/02 10:19:30;;;;;;;12.02;7.93;;;;;;;18.52;83.76;96756.19;4977313;28;20038;-79
2023/08/02 10:22:00;;;;;;;11.18;8.30;;;;;;;18.49;83.79;96756.81;4970023;28;20050;-79
2023/08/02 10:24:26;;;;;;;9.77;7.68;;;;;;;18.56;83.96;96752.47;4980639;28;20042;-79
2023/08/02 10:26:54;;;;;;;10.50;7.90;;;;;;;18.43;84.31;96747.22;4977875;28;20069;-79
2023/08/02 10:29:20;;;;;;;8.05;7.00;;;;;;;18.30;84.54;96727.25;4994561;28;20034;-79
2023/08/02 10:31:45;;;;;;;10.57;8.35;;;;;;;18.08;84.39;96724.00;4988190;28;20172;-79
2023/08/02 10:34:36;;;;;;;11.70;8.82;;;;;;;18.22;84.58;96751.81;5005914;28;20125;-79
2023/08/02 10:37:03;;;;;;;12.55;9.32;;;;;;;18.17;85.36;96744.63;5003114;28;20061;-79
2023/08/02 10:39:50;;;;;;;14.13;10.48;;;;;;;18.10;84.85;96738.09;4969084;28;20081;-79
2023/08/02 10:42:18;;;;;;;14.57;9.98;;;;;;;17.95;85.43;96704.84;5005186;28;20030;-79
2023/08/02 10:44:56;;;;;;;13.73;10.63;;;;;;;18.27;85.43;96721.66;4980955;28;20113;-79
2023/08/02 10:47:30;;;;;;;13.82;9.77;;;;;;;18.26;85.45;96725.50;4996843;28;20110;-78
2023/08/02 10:49:57;;;;;;;14.25;10.20;;;;;;;18.28;85.89;96701.44;4996075;28;20036;-78
2023/08/02 10:52:35;;;;;;;12.68;9.05;;;;;;;18.29;85.94;96692.16;4982252;28;20061;-78
2023/08/02 10:55:10;;;;;;;13.80;10.75;;;;;;;18.30;86.41;96677.38;4987135;28;20038;-77
2023/08/02 10:57:36;;;;;;;12.77;10.52;;;;;;;18.24;86.12;96701.31;4982928;28;20543;-77
2023/08/02 11:00:17;;;;;;;12.27;9.70;;;;;;;18.13;86.04;96674.78;5012836;28;20025;-78
2023/08/02 11:02:45;;;;;;;13.70;9.73;;;;;;;17.98;86.66;96653.53;4979284;28;20062;-78
2023/08/02 11:05:11;;;;;;;12.77;10.75;;;;;;;18.13;87.20;96658.44;4975868;28;20038;-78
2023/08/02 11:07:36;;;;;;;14.23;10.38;;;;;;;18.07;87.28;96660.53;4981690;28;20031;-78
2023/08/02 11:10:05;;;;;;;15.55;10.43;;;;;;;18.19;86.90;96681.63;4980194;28;20085;-78
2023/08/02 11:12:32;;;;;;;15.25;10.60;;;;;;;17.86;87.52;96644.16;4986576;28;20088;-78
2023/08/02 11:14:57;;;;;;;11.82;10.07;;;;;;;17.98;87.38;96659.78;4995379;28;20029;-77
2023/08/02 11:17:23;;;;;;;17.92;10.88;;;;;;;17.80;87.87;96637.31;4999033;28;20042;-78
2023/08/02 11:19:50;;;;;;;13.13;10.82;;;;;;;18.00;88.31;96662.19;4996669;28;20491;-78
2023/08/02 11:22:16;;;;;;;16.75;10.75;;;;;;;17.84;88.58;96637.44;4988692;28;20659;-78
2023/08/02 11:24:45;;;;;;;14.52;10.68;;;;;;;17.74;88.50;96633.16;4984230;28;20034;-78
2023/08/02 11:27:17;;;;;;;16.30;11.43;;;;;;;17.76;89.00;96647.25;4959667;28;20031;-78
2023/08/02 11:29:59;;;;;;;16.05;12.52;;;;;;;17.65;88.98;96643.28;5005126;28;20047;-78
2023/08/02 11:32:25;;;;;;;14.90;11.45;;;;;;;17.71;89.62;96635.75;4998347;28;20127;-77
2023/08/02 11:34:50;;;;;;;17.13;12.10;;;;;;;17.85;89.81;96642.53;4969116;28;20488;-77
2023/08/02 11:37:15;;;;;;;16.88;11.45;;;;;;;17.69;89.79;96614.28;4966027;28;20065;-78
2023/08/02 11:39:55;;;;;;;17.10;11.80;;;;;;;17.69;89.82;96619.72;4990370;28;20084;-78
2023/08/02 11:42:20;;;;;;;14.85;11.43;;;;;;;17.66;90.08;96609.50;4990147;28;20034;-77
2023/08/02 11:44:46;;;;;;;16.27;11.85;;;;;;;17.83;90.56;96614.84;4976760;28;20052;-77
2023/08/02 11:47:11;;;;;;;18.40;11.95;;;;;;;17.88;90.70;96594.78;5005777;28;20121;-77
2023/08/02 11:49:56;;;;;;;14.45;10.52;;;;;;;17.96;90.64;96607.56;4984151;28;20032;-78
2023/08/02 11:52:29;;;;;;;13.70;10.63;;;;;;;18.09;90.62;96605.69;4980002;28;20038;-78
2023/08/02 11:54:56;;;;;;;12.10;9.27;;;;;;;18.10;90.53;96604.59;4969232;28;20042;-78
2023/08/02 11:57:23;;;;;;;11.88;9.20;;;;;;;17.86;90.49;96559.72;4989988;28;20061;-78
2023/08/02 11:59:49;;;;;;;12.02;8.52;;;;;;;18.04;90.50;96605.91;4988284;28;20091;-78
2023/08/02 12:02:24;;;;;;;10.60;8.43;;;;;;;18.11;90.75;96600.75;4983378;28;20029;-77